Winnipeg James Armstrong Richardson International Airport
CYWG : now visible

Airfield :











YOU CAN JOIN US ON...

 
LOGIN :

Register | Disclaimer

   EN    FR    IT 

 









Legend :    VFR   Marginal VFR   IFR   Intensive IFR   Very Intensive IFR
Visi :
Ceiling :
>= 8 km
>= 3000ft
5 to 8 km
1000 to 3000 ft
1500m to 5 km
500 to 1000 ft
800 to 1500m
200 to 500 ft
< 800m
< 200 ft
Symbols :   Thunderstorms  Fog  Heavy snow  Heavy precipitations  Wind > 20 kt






- Airport Elevation : 783 ft
- IATA code : YWG


CYWG - Winnipeg James Armstrong Richardson International

CURRENT METAR :
  • 191100Z 17020G26KT 15SM BKN200 21/17 A2941 RMK CI5 SLP960 DENSITY ALT 2300FT

EXPIRED METARs :
  • 191000Z 17017G23KT 15SM SCT150 BKN230 20/16 A2946 RMK AS3CI4 PRESRR SLP977 DENSITY ALT 2100FT
  • 190900Z 17017G24KT 15SM BKN230 19/15 A2949 RMK CI7 SLP988 DENSITY ALT 1900FT

TAF TAF CYWG
Valid from the 19 at 12:00 until the 20 at 12:00 UTC


191138Z 1912/2012 18015G25KT P6SM FEW200
FM191600 22015KT P6SM FEW120 SCT200
BECMG 1919/1921 30012KT
FM200400 34010KT P6SM SCT060 BKN120 OVC200
PROB30 2004/2009 VRB15G25KT P6SM TSRA OVC060CB
FM200900 34015G25KT P6SM -SHRA SCT020 OVC060
PROB40 2009/2012 VRB20G30KT 4SM TSRA SCT006 OVC020CB RMK NXT FCST BY 191800Z
CZWG FIR / North America



MET'MAP, your aeronautical weather chart ! - Copyright ORBIFLY December 2007 - Disclaimer

ORBIFLY MET'MAP TEAM :

Programming & Development : Alexandra Zaïnal
Concept & original design : Baudouin d'Aumeries
Assistance for programming : Marc-Olivier Méhu
Technical & hardware support : Manuel Goepfert

Contact : metmap@orbifly.com




SOURCES & CREDITS :

   NOAA       Earth
Advisory